createdAt,value
2022-12-06T00:01:18.114Z,100762.31
2022-12-06T00:03:46.965Z,100771.47
2022-12-06T00:06:16.859Z,100773.50
2022-12-06T00:08:44.533Z,100770.09
2022-12-06T00:11:14.265Z,100772.84
2022-12-06T00:13:41.632Z,100774.03
2022-12-06T00:16:11.790Z,100769.91
2022-12-06T00:18:39.862Z,100776.56
2022-12-06T00:21:14.145Z,100762.97
2022-12-06T00:23:46.834Z,100767.38
2022-12-06T00:26:14.584Z,100765.91
2022-12-06T00:28:41.643Z,100764.75
2022-12-06T00:31:15.817Z,100757.66
2022-12-06T00:33:42.846Z,100758.28
2022-12-06T00:36:19.187Z,100755.75
2022-12-06T00:38:46.651Z,100759.31
2022-12-06T00:41:15.764Z,100754.81
2022-12-06T00:43:43.307Z,100755.13
2022-12-06T00:46:13.352Z,100749.34
2022-12-06T00:48:40.134Z,100744.66
2022-12-06T00:51:06.802Z,100748.00
2022-12-06T00:53:33.513Z,100747.03
2022-12-06T00:56:00.220Z,100748.53
2022-12-06T00:58:27.082Z,100748.06
2022-12-06T01:00:53.879Z,100742.94
2022-12-06T01:03:21.696Z,100748.31
2022-12-06T01:05:50.370Z,100748.94
2022-12-06T01:08:18.563Z,100744.03
2022-12-06T01:10:53.520Z,100752.03
2022-12-06T01:13:20.973Z,100746.25
2022-12-06T01:15:47.768Z,100745.53
2022-12-06T01:18:14.631Z,100748.78
2022-12-06T01:20:41.503Z,100748.47
2022-12-06T01:23:08.256Z,100748.47
2022-12-06T01:25:36.374Z,100748.22
2022-12-06T01:28:03.775Z,100745.84
2022-12-06T01:30:30.747Z,100751.81
2022-12-06T01:32:57.573Z,100747.81
2022-12-06T01:35:24.265Z,100751.63
2022-12-06T01:37:50.920Z,100749.72
2022-12-06T01:40:17.693Z,100739.28
2022-12-06T01:42:44.502Z,100739.69
2022-12-06T01:45:11.471Z,100738.34
2022-12-06T01:47:42.132Z,100735.16
2022-12-06T01:50:27.947Z,100732.69
2022-12-06T01:52:57.602Z,100731.13
2022-12-06T01:55:28.370Z,100726.00
2022-12-06T01:57:58.549Z,100720.53
2022-12-06T02:00:25.363Z,100726.75
2022-12-06T02:02:53.839Z,100720.19
2022-12-06T02:05:20.653Z,100711.97
2022-12-06T02:07:48.203Z,100714.97
2022-12-06T02:10:14.949Z,100707.84
2022-12-06T02:12:41.626Z,100707.38
2022-12-06T02:15:09.086Z,100711.97
2022-12-06T02:17:54.168Z,100712.03
2022-12-06T02:20:36.261Z,100699.69
2022-12-06T02:23:44.359Z,100708.00
2022-12-06T02:26:30.664Z,100702.16
2022-12-06T02:29:17.540Z,100702.31
2022-12-06T02:31:51.917Z,100706.50
2022-12-06T02:34:30.667Z,100707.63
2022-12-06T02:37:10.261Z,100703.44
2022-12-06T02:39:42.774Z,100696.00
2022-12-06T02:42:17.333Z,100692.41
2022-12-06T02:44:50.274Z,100697.09
2022-12-06T02:47:20.732Z,100693.03
2022-12-06T02:49:54.716Z,100702.97
2022-12-06T02:52:25.540Z,100697.72
2022-12-06T02:54:55.436Z,100701.84
2022-12-06T02:57:34.929Z,100701.84
2022-12-06T03:00:02.212Z,100701.84
2022-12-06T03:02:29.067Z,100693.66
2022-12-06T03:05:20.373Z,100701.59
2022-12-06T03:07:49.368Z,100692.56
2022-12-06T03:10:37.783Z,100705.78
2022-12-06T03:13:14.589Z,100695.84
2022-12-06T03:16:11.104Z,100697.38
2022-12-06T03:18:57.949Z,100703.50
2022-12-06T03:21:37.406Z,100703.91
2022-12-06T03:24:10.219Z,100692.97
2022-12-06T03:26:39.228Z,100687.97
2022-12-06T03:29:09.379Z,100684.16
2022-12-06T03:31:39.889Z,100681.00
2022-12-06T03:34:19.358Z,100685.28
2022-12-06T03:36:48.590Z,100674.09
2022-12-06T03:39:24.521Z,100686.47
2022-12-06T03:41:58.801Z,100674.47
2022-12-06T03:44:26.476Z,100673.72
2022-12-06T03:46:59.197Z,100673.09
2022-12-06T03:49:54.340Z,100671.63
2022-12-06T03:52:23.584Z,100672.56
2022-12-06T03:54:50.332Z,100674.47
2022-12-06T03:57:17.093Z,100674.47
2022-12-06T03:59:43.758Z,100679.06
2022-12-06T04:02:10.559Z,100672.63
2022-12-06T04:04:37.265Z,100674.69
2022-12-06T04:07:04.018Z,100680.22
2022-12-06T04:10:09.073Z,100683.78
2022-12-06T04:12:54.318Z,100671.38
2022-12-06T04:15:23.152Z,100673.19
2022-12-06T04:18:08.751Z,100671.28
2022-12-06T04:20:58.402Z,100666.31
2022-12-06T04:23:26.026Z,100669.63
2022-12-06T04:25:52.701Z,100672.69
2022-12-06T04:28:37.919Z,100668.09
2022-12-06T04:31:23.049Z,100662.72
2022-12-06T04:34:09.761Z,100660.28
2022-12-06T04:36:57.025Z,100659.50
2022-12-06T04:39:24.140Z,100658.47
2022-12-06T04:42:09.800Z,100656.19
2022-12-06T04:44:36.740Z,100661.41
2022-12-06T04:47:04.147Z,100656.72
2022-12-06T04:49:30.834Z,100663.13
2022-12-06T04:51:57.588Z,100657.81
2022-12-06T04:54:24.776Z,100650.81
2022-12-06T04:56:51.674Z,100660.66
2022-12-06T04:59:18.486Z,100661.63
2022-12-06T05:01:45.369Z,100659.81
2022-12-06T05:04:12.149Z,100655.44
2022-12-06T05:06:38.937Z,100651.28
2022-12-06T05:09:05.960Z,100655.38
2022-12-06T05:11:33.072Z,100651.81
2022-12-06T05:14:00.653Z,100652.28
2022-12-06T05:16:27.469Z,100643.25
2022-12-06T05:18:54.300Z,100686.06
2022-12-06T05:21:23.506Z,100682.03
2022-12-06T05:23:52.882Z,100684.38
2022-12-06T05:26:20.929Z,100689.91
2022-12-06T05:28:48.189Z,100681.22
2022-12-06T05:31:16.602Z,100670.16
2022-12-06T05:33:43.471Z,100675.38
2022-12-06T05:36:12.920Z,100682.81
2022-12-06T05:38:39.977Z,100681.06
2022-12-06T05:41:08.544Z,100679.16
2022-12-06T05:43:35.828Z,100679.31
2022-12-06T05:46:02.877Z,100677.44
2022-12-06T05:48:29.671Z,100679.31
2022-12-06T05:51:05.983Z,100678.69
2022-12-06T05:53:36.020Z,100671.63
2022-12-06T05:56:12.110Z,100673.47
2022-12-06T05:58:39.496Z,100671.72
2022-12-06T06:01:07.802Z,100675.50
2022-12-06T06:03:35.176Z,100674.41
2022-12-06T06:06:02.626Z,100669.97
2022-12-06T06:08:30.213Z,100669.03
2022-12-06T06:10:57.955Z,100671.88
2022-12-06T06:13:24.701Z,100662.75
2022-12-06T06:15:51.556Z,100679.94
2022-12-06T06:18:19.382Z,100669.44
2022-12-06T06:20:54.850Z,100660.97
2022-12-06T06:23:21.786Z,100660.22
2022-12-06T06:25:48.742Z,100657.31
2022-12-06T06:28:16.766Z,100662.06
2022-12-06T06:30:43.913Z,100656.84
2022-12-06T06:33:10.694Z,100656.53
2022-12-06T06:35:38.510Z,100649.41
2022-12-06T06:38:05.267Z,100723.31
2022-12-06T06:40:32.302Z,100723.75
2022-12-06T06:43:17.901Z,100720.25
2022-12-06T06:45:57.089Z,100718.28
2022-12-06T06:48:25.469Z,100725.13
2022-12-06T06:50:57.253Z,100719.47
2022-12-06T06:53:26.445Z,100721.91
2022-12-06T06:55:54.160Z,100722.06
2022-12-06T06:58:20.968Z,100720.00
2022-12-06T07:01:03.052Z,100717.41
2022-12-06T07:03:30.322Z,100721.09
2022-12-06T07:05:59.661Z,100723.09
2022-12-06T07:08:28.153Z,100715.53
2022-12-06T07:10:55.086Z,100716.63
2022-12-06T07:13:24.492Z,100724.84
2022-12-06T07:15:51.631Z,100719.50
2022-12-06T07:18:19.314Z,100724.03
2022-12-06T07:20:47.927Z,100722.06
2022-12-06T07:23:15.701Z,100718.66
2022-12-06T07:25:42.458Z,100716.81
2022-12-06T07:28:09.441Z,100722.44
2022-12-06T07:30:36.256Z,100721.25
2022-12-06T07:33:03.036Z,100724.09
2022-12-06T07:35:48.826Z,100724.03
2022-12-06T07:38:16.919Z,100718.72
2022-12-06T07:43:49.091Z,100719.47
2022-12-06T07:46:19.097Z,100728.31
2022-12-06T07:48:45.855Z,100723.25
2022-12-06T07:51:12.535Z,100730.50
2022-12-06T07:53:39.272Z,100725.03
2022-12-06T07:56:07.508Z,100743.84
2022-12-06T07:58:34.399Z,100741.16
2022-12-06T08:01:03.237Z,100738.56
2022-12-06T08:03:30.190Z,100735.72
2022-12-06T08:05:56.992Z,100736.59
2022-12-06T08:08:28.551Z,100742.06
2022-12-06T08:10:59.354Z,100734.94
2022-12-06T08:13:26.380Z,100742.84
2022-12-06T08:15:53.164Z,100744.66
2022-12-06T08:18:19.928Z,100741.16
2022-12-06T08:20:46.901Z,100749.38
2022-12-06T08:23:14.675Z,100745.69
2022-12-06T08:25:41.408Z,100746.63
2022-12-06T08:28:08.084Z,100748.53
2022-12-06T08:30:34.971Z,100741.97
2022-12-06T08:33:01.764Z,100752.38
2022-12-06T08:35:28.552Z,100747.28
2022-12-06T08:37:55.830Z,100750.63
2022-12-06T08:40:22.878Z,100755.13
2022-12-06T08:42:49.576Z,100761.81
2022-12-06T08:45:16.827Z,100751.41
2022-12-06T08:47:44.103Z,100746.44
2022-12-06T08:50:11.603Z,100754.53
2022-12-06T08:52:38.647Z,100748.97
2022-12-06T08:55:05.924Z,100743.94
2022-12-06T08:57:33.643Z,100749.25
2022-12-06T09:00:01.002Z,100752.75
2022-12-06T09:02:28.266Z,100745.69
2022-12-06T09:04:55.343Z,100747.06
2022-12-06T09:07:23.634Z,100751.16
2022-12-06T09:09:51.499Z,100757.59
2022-12-06T09:12:18.304Z,100752.28
2022-12-06T09:14:45.425Z,100757.06
2022-12-06T09:17:12.951Z,100763.31
2022-12-06T09:19:40.198Z,100762.09
2022-12-06T09:22:07.462Z,100760.50
2022-12-06T09:24:34.651Z,100764.72
2022-12-06T09:27:02.140Z,100760.28
2022-12-06T09:29:29.609Z,100757.53
2022-12-06T09:31:56.867Z,100759.50
2022-12-06T09:34:24.119Z,100755.41
2022-12-06T09:36:58.236Z,100756.81
2022-12-06T09:39:32.356Z,100753.91
2022-12-06T09:42:13.203Z,100753.53
2022-12-06T09:45:04.535Z,100754.22
2022-12-06T09:47:40.394Z,100751.03
2022-12-06T09:50:28.433Z,100757.97
2022-12-06T09:53:20.237Z,100753.44
2022-12-06T09:56:17.719Z,100753.88
2022-12-06T09:59:19.916Z,100751.28
2022-12-06T10:02:07.384Z,100751.03
2022-12-06T10:04:40.461Z,100756.03
2022-12-06T10:07:07.502Z,100749.53
2022-12-06T10:09:43.393Z,100754.91
2022-12-06T10:12:34.380Z,100750.59
2022-12-06T10:15:27.160Z,100751.31
2022-12-06T10:18:15.856Z,100751.13
2022-12-06T10:21:00.121Z,100747.97
2022-12-06T10:23:32.742Z,100751.19
2022-12-06T10:26:22.594Z,100748.50
2022-12-06T10:28:58.376Z,100742.56
2022-12-06T10:31:52.862Z,100741.63
2022-12-06T10:34:33.957Z,100732.47
2022-12-06T10:37:20.946Z,100735.16
2022-12-06T10:39:56.997Z,100733.59
2022-12-06T10:42:26.720Z,100728.59
2022-12-06T10:44:56.408Z,100725.88
2022-12-06T10:47:34.954Z,100734.25
2022-12-06T10:50:14.336Z,100729.84
2022-12-06T10:52:41.000Z,100732.97
2022-12-06T10:55:11.179Z,100728.41
2022-12-06T10:58:20.092Z,100727.31
2022-12-06T11:01:05.122Z,100730.50
2022-12-06T11:03:44.974Z,100733.41
2022-12-06T11:06:37.913Z,100733.69
2022-12-06T11:09:23.732Z,100737.97
2022-12-06T11:11:51.845Z,100737.09
2022-12-06T11:14:25.644Z,100740.94
2022-12-06T11:17:00.615Z,100736.00
2022-12-06T11:19:40.668Z,100737.84
2022-12-06T11:22:16.642Z,100746.03
2022-12-06T11:24:52.739Z,100739.72
2022-12-06T11:27:27.116Z,100739.78
2022-12-06T11:29:54.115Z,100736.16
2022-12-06T11:32:21.163Z,100734.56
2022-12-06T11:34:52.042Z,100726.81
2022-12-06T11:37:21.920Z,100733.19
2022-12-06T11:39:54.154Z,100733.03
2022-12-06T11:42:27.304Z,100738.56
2022-12-06T11:44:58.094Z,100741.22
2022-12-06T11:47:25.216Z,100739.28
2022-12-06T11:49:55.665Z,100735.09
2022-12-06T11:52:37.282Z,100734.38
2022-12-06T11:55:16.027Z,100734.00
2022-12-06T11:57:58.272Z,100736.91
2022-12-06T12:00:26.080Z,100738.94
2022-12-06T12:02:55.446Z,100727.47
2022-12-06T12:05:23.006Z,100741.69
2022-12-06T12:08:03.340Z,100734.56
2022-12-06T12:10:34.568Z,100732.41
2022-12-06T12:13:40.961Z,100736.31
2022-12-06T12:16:25.569Z,100729.19
2022-12-06T12:19:03.664Z,100740.81
2022-12-06T12:21:38.180Z,100732.19
2022-12-06T12:24:06.570Z,100736.47
2022-12-06T12:26:41.275Z,100726.94
2022-12-06T12:29:08.140Z,100728.81
2022-12-06T12:31:56.760Z,100726.38
2022-12-06T12:34:26.943Z,100725.19
2022-12-06T12:37:00.779Z,100692.97
2022-12-06T12:39:38.743Z,100696.22
2022-12-06T12:42:29.810Z,100700.50
2022-12-06T12:45:00.773Z,100713.72
2022-12-06T12:47:28.218Z,100705.94
2022-12-06T12:50:18.627Z,100714.81
2022-12-06T12:52:46.067Z,100724.84
2022-12-06T12:55:18.901Z,100727.31
2022-12-06T12:57:48.803Z,100731.91
2022-12-06T13:00:22.480Z,100733.44
2022-12-06T13:02:55.324Z,100742.19
2022-12-06T13:05:34.934Z,100757.97
2022-12-06T13:08:19.878Z,100750.41
2022-12-06T13:10:58.470Z,100753.44
2022-12-06T13:13:32.606Z,100749.16
2022-12-06T13:16:01.885Z,100763.53
2022-12-06T13:18:37.628Z,100768.75
2022-12-06T13:21:32.061Z,100765.38
2022-12-06T13:24:12.634Z,100780.16
2022-12-06T13:26:50.470Z,100786.22
2022-12-06T13:29:32.816Z,100789.75
2022-12-06T13:32:08.994Z,100798.47
2022-12-06T13:34:50.705Z,100800.66
2022-12-06T13:37:28.121Z,100812.53
2022-12-06T13:39:55.172Z,100823.38
2022-12-06T13:42:37.553Z,100828.47
2022-12-06T13:45:42.350Z,100836.34
2022-12-06T13:48:24.681Z,100846.88
2022-12-06T13:50:57.918Z,100846.22
2022-12-06T13:53:27.340Z,100840.50
2022-12-06T13:56:21.767Z,100849.63
2022-12-06T13:58:56.999Z,100853.25
2022-12-06T14:01:52.324Z,100852.44
2022-12-06T14:09:40.552Z,100861.31
2022-12-06T14:12:36.908Z,100865.31
2022-12-06T14:15:06.127Z,100867.63
2022-12-06T14:20:31.618Z,100894.34
2022-12-06T14:22:59.362Z,100903.16
2022-12-06T14:25:29.096Z,100905.22
2022-12-06T14:28:06.725Z,100917.25
2022-12-06T14:30:34.413Z,100928.03
2022-12-06T14:33:01.546Z,100942.28
2022-12-06T14:35:35.970Z,100960.56
2022-12-06T14:38:24.686Z,100974.31
2022-12-06T14:41:11.109Z,100989.78
2022-12-06T14:43:38.747Z,101012.16
2022-12-06T14:46:13.025Z,101021.84
2022-12-06T14:48:58.394Z,101042.66
2022-12-06T14:51:33.846Z,101067.84
2022-12-06T14:54:28.491Z,101081.94
2022-12-06T14:56:55.501Z,101092.69
2022-12-06T15:00:01.567Z,101119.28
2022-12-06T15:02:24.880Z,101129.94
2022-12-06T15:04:52.031Z,101139.75
2022-12-06T15:07:48.727Z,101150.34
2022-12-06T15:10:32.258Z,101170.03
2022-12-06T15:13:16.049Z,101172.84
2022-12-06T15:15:46.243Z,101186.88
2022-12-06T15:18:27.661Z,101204.41
2022-12-06T15:20:55.067Z,101215.06
2022-12-06T15:23:30.373Z,101219.59
2022-12-06T15:25:57.887Z,101237.47
2022-12-06T15:28:25.105Z,101239.63
2022-12-06T15:30:52.293Z,101253.16
2022-12-06T15:33:22.935Z,101264.81
2022-12-06T15:35:50.522Z,101273.25
2022-12-06T15:38:17.843Z,101294.13
2022-12-06T15:40:48.223Z,101299.59
2022-12-06T15:43:35.583Z,101306.00
2022-12-06T15:46:04.100Z,101310.63
2022-12-06T15:48:34.686Z,101324.16
2022-12-06T15:51:01.660Z,101330.44
2022-12-06T15:53:29.398Z,101331.56
2022-12-06T15:55:56.344Z,101336.91
2022-12-06T15:58:23.482Z,101344.06
2022-12-06T16:00:50.752Z,101355.06
2022-12-06T16:03:18.122Z,101354.22
2022-12-06T16:05:45.214Z,101356.09
2022-12-06T16:08:12.294Z,101358.03
2022-12-06T16:11:10.354Z,101360.91
2022-12-06T16:13:26.431Z,101355.69
2022-12-06T16:15:53.652Z,101364.56
2022-12-06T16:18:20.933Z,101369.31
2022-12-06T16:20:48.352Z,101362.25
2022-12-06T16:24:11.517Z,101360.75
2022-12-06T16:26:27.952Z,101359.09
2022-12-06T16:28:55.620Z,101357.25
2022-12-06T16:31:22.747Z,101361.88
2022-12-06T16:33:50.534Z,101362.94
2022-12-06T16:36:32.118Z,101362.22
2022-12-06T16:39:02.063Z,101352.31
2022-12-06T16:41:33.175Z,101351.63
2022-12-06T16:44:01.161Z,101349.47
2022-12-06T16:46:27.894Z,101351.63
2022-12-06T16:49:22.637Z,101356.84
2022-12-06T16:51:51.579Z,101358.69
2022-12-06T16:54:18.693Z,101351.34
2022-12-06T16:56:46.301Z,101351.94
2022-12-06T16:59:18.631Z,101352.84
2022-12-06T17:01:51.688Z,101349.44
2022-12-06T17:04:19.081Z,101347.81
2022-12-06T17:06:47.107Z,101347.09
2022-12-06T17:09:15.155Z,101346.84
2022-12-06T17:12:01.094Z,101354.69
2022-12-06T17:14:28.740Z,101346.53
2022-12-06T17:17:01.469Z,101350.81
2022-12-06T17:19:28.620Z,101347.47
2022-12-06T17:21:56.665Z,101340.75
2022-12-06T17:24:26.619Z,101338.84
2022-12-06T17:26:55.358Z,101325.28
2022-12-06T17:29:23.992Z,101328.13
2022-12-06T17:31:52.530Z,101320.19
2022-12-06T17:34:20.242Z,101314.03
2022-12-06T17:36:49.157Z,101312.19
2022-12-06T17:39:18.750Z,101298.63
2022-12-06T17:42:04.574Z,101289.44
2022-12-06T17:44:31.839Z,101287.53
2022-12-06T17:46:59.168Z,101277.81
2022-12-06T17:49:27.745Z,101274.97
2022-12-06T17:52:27.485Z,101267.56
2022-12-06T17:55:17.412Z,101267.56
2022-12-06T17:57:44.812Z,101273.75
2022-12-06T18:00:13.128Z,101265.34
2022-12-06T18:02:40.549Z,101254.47
2022-12-06T18:05:08.098Z,101247.44
2022-12-06T18:07:35.451Z,101237.28
2022-12-06T18:10:02.944Z,101232.84
2022-12-06T18:12:32.148Z,101211.22
2022-12-06T18:15:02.468Z,101210.66
2022-12-06T18:17:30.149Z,101204.28
2022-12-06T18:19:57.880Z,101205.88
2022-12-06T18:22:25.330Z,101204.97
2022-12-06T18:24:52.683Z,101201.69
2022-12-06T18:27:19.873Z,101196.22
2022-12-06T18:29:47.051Z,101195.69
2022-12-06T18:32:14.456Z,101199.53
2022-12-06T18:34:41.898Z,101187.78
2022-12-06T18:37:09.392Z,101189.38
2022-12-06T18:39:36.701Z,101177.75
2022-12-06T18:42:03.951Z,101168.03
2022-12-06T18:44:31.635Z,101174.22
2022-12-06T18:46:59.484Z,101178.81
2022-12-06T18:49:26.478Z,101177.75
2022-12-06T18:51:53.537Z,101174.31
2022-12-06T18:54:20.613Z,101169.09
2022-12-06T18:56:47.562Z,101175.06
2022-12-06T18:59:14.671Z,101160.00
2022-12-06T19:01:41.974Z,101154.56
2022-12-06T19:04:13.323Z,101154.63
2022-12-06T19:06:40.516Z,101155.50
2022-12-06T19:09:10.862Z,101134.75
2022-12-06T19:11:43.505Z,101135.91
2022-12-06T19:14:11.684Z,101145.72
2022-12-06T19:16:40.658Z,101142.41
2022-12-06T19:19:16.218Z,101138.59
2022-12-06T19:21:45.351Z,101128.56
2022-12-06T19:24:19.597Z,101135.13
2022-12-06T19:26:47.537Z,101131.91
2022-12-06T19:29:15.999Z,101131.84
2022-12-06T19:31:43.613Z,101129.97
2022-12-06T19:34:25.516Z,101119.97
2022-12-06T19:36:54.206Z,101110.75
2022-12-06T19:39:22.005Z,101109.22
2022-12-06T19:42:07.336Z,101104.38
2022-12-06T19:44:34.752Z,101101.09
2022-12-06T19:47:02.146Z,101099.34
2022-12-06T19:49:29.591Z,101091.47
2022-12-06T19:51:56.562Z,101086.22
2022-12-06T19:54:26.462Z,101079.22
2022-12-06T19:56:55.684Z,101072.78
2022-12-06T19:59:25.053Z,101077.47
2022-12-06T20:01:52.909Z,101068.34
2022-12-06T20:04:25.875Z,101068.94
2022-12-06T20:06:53.990Z,101067.41
2022-12-06T20:09:23.620Z,101072.22
2022-12-06T20:12:04.073Z,101069.22
2022-12-06T20:14:40.362Z,101064.19
2022-12-06T20:17:14.067Z,101059.25
2022-12-06T20:19:46.452Z,101068.34
2022-12-06T20:22:14.567Z,101059.63
2022-12-06T20:24:41.912Z,101053.75
2022-12-06T20:27:10.113Z,101048.91
2022-12-06T20:29:37.771Z,101049.03
2022-12-06T20:32:05.567Z,101042.59
2022-12-06T20:34:34.985Z,101035.69
2022-12-06T20:37:05.104Z,101031.53
2022-12-06T20:39:35.723Z,101029.31
2022-12-06T20:42:04.802Z,101025.56
2022-12-06T20:44:32.473Z,101016.41
2022-12-06T20:47:00.946Z,101009.66
2022-12-06T20:49:28.918Z,101014.97
2022-12-06T20:51:58.191Z,101000.53
2022-12-06T20:54:26.869Z,100993.06
2022-12-06T20:56:54.373Z,100983.88
2022-12-06T20:59:21.829Z,100972.09
2022-12-06T21:01:50.660Z,100969.41
2022-12-06T21:04:17.776Z,100963.69
2022-12-06T21:06:44.512Z,100958.13
2022-12-06T21:09:11.346Z,100948.47
2022-12-06T21:11:38.777Z,100944.06
2022-12-06T21:14:06.289Z,100937.28
2022-12-06T21:16:42.566Z,100928.28
2022-12-06T21:19:20.039Z,100919.88
2022-12-06T21:21:54.105Z,100915.38
2022-12-06T21:24:21.916Z,100922.91
2022-12-06T21:26:49.337Z,100919.81
2022-12-06T21:29:18.001Z,100901.72
2022-12-06T21:31:45.254Z,100904.50
2022-12-06T21:34:13.509Z,100893.97
2022-12-06T21:36:40.502Z,100893.69
2022-12-06T21:39:07.846Z,100887.19
2022-12-06T21:41:34.808Z,100886.72
2022-12-06T21:44:02.111Z,100882.72
2022-12-06T21:46:29.324Z,100881.84
2022-12-06T21:48:58.963Z,100863.59
2022-12-06T21:51:30.811Z,100858.38
2022-12-06T21:53:58.463Z,100852.00
2022-12-06T21:56:30.622Z,100855.81
2022-12-06T21:59:00.238Z,100855.97
2022-12-06T22:01:29.132Z,100850.13
2022-12-06T22:03:59.315Z,100841.03
2022-12-06T22:06:26.820Z,100821.84
2022-12-06T22:09:03.125Z,100825.75
2022-12-06T22:11:31.061Z,100832.38
2022-12-06T22:14:00.287Z,100825.88
2022-12-06T22:16:28.763Z,100827.63
2022-12-06T22:18:55.829Z,100814.22
2022-12-06T22:21:26.101Z,100802.66
2022-12-06T22:23:53.516Z,100806.50
2022-12-06T22:26:22.739Z,100796.41
2022-12-06T22:28:50.657Z,100797.53
2022-12-06T22:31:23.400Z,100796.47
2022-12-06T22:33:51.234Z,100793.16
2022-12-06T22:36:19.575Z,100784.94
2022-12-06T22:38:54.946Z,100774.28
2022-12-06T22:41:23.777Z,100765.41
2022-12-06T22:43:52.454Z,100770.09
2022-12-06T22:46:19.645Z,100761.63
2022-12-06T22:48:47.030Z,100765.19
2022-12-06T22:51:19.294Z,100751.78
2022-12-06T22:53:49.128Z,100751.31
2022-12-06T22:56:16.466Z,100741.06
2022-12-06T22:58:44.016Z,100725.47
2022-12-06T23:01:16.328Z,100715.06
2022-12-06T23:03:46.854Z,100710.50
2022-12-06T23:06:15.881Z,100712.56
2022-12-06T23:08:43.657Z,100697.31
2022-12-06T23:11:12.932Z,100701.19
2022-12-06T23:13:39.927Z,100689.66
2022-12-06T23:16:10.640Z,100679.06
2022-12-06T23:18:37.792Z,100663.13
2022-12-06T23:21:11.001Z,100668.25
2022-12-06T23:23:39.624Z,100656.81
2022-12-06T23:26:08.594Z,100653.69
2022-12-06T23:28:36.177Z,100636.59
2022-12-06T23:31:14.004Z,100627.34
2022-12-06T23:33:42.161Z,100633.78
2022-12-06T23:36:18.110Z,100626.56
2022-12-06T23:38:45.350Z,100601.91
2022-12-06T23:41:14.487Z,100606.63
2022-12-06T23:43:41.982Z,100600.47
2022-12-06T23:46:12.199Z,100591.69
2022-12-06T23:48:39.336Z,100581.72
2022-12-06T23:51:09.628Z,100570.03
2022-12-06T23:53:37.102Z,100570.16
2022-12-06T23:56:10.959Z,100566.47
2022-12-06T23:58:38.192Z,100564.03
